Time;durP1;ratioP1;P1;durP2;ratioP2;P2;SDS_P1;SDS_P2;PMS_P1;PMS_P2;Temp;Humidity;BMP_temperature;BMP_pressure;BME280_temperature;BME280_humidity;BME280_pressure;Samples;Min_cycle;Max_cycle;Signal;HPM_P1;HPM_P2
2022/11/28 00:02:32;;;;;;;30.48;16.00;;;;;;;3.69;100.00;99535.44;4933374;28;20487;-79
2022/11/28 00:05:17;;;;;;;33.75;18.67;;;;;;;3.59;100.00;99533.97;4932246;29;20452;-78
2022/11/28 00:08:02;;;;;;;32.55;17.42;;;;;;;3.39;100.00;99534.53;4907591;29;20102;-78
2022/11/28 00:10:47;;;;;;;28.73;16.20;;;;;;;3.58;100.00;99545.25;4933579;29;20090;-79
2022/11/28 00:13:32;;;;;;;33.67;18.17;;;;;;;3.64;100.00;99539.06;4934894;29;20036;-77
2022/11/28 00:16:22;;;;;;;28.10;15.93;;;;;;;3.64;100.00;99539.88;4920153;29;20179;-77
2022/11/28 00:19:06;;;;;;;28.25;16.70;;;;;;;3.87;100.00;99543.56;4916820;29;20066;-78
2022/11/28 00:21:51;;;;;;;26.83;16.58;;;;;;;3.53;100.00;99541.91;4934701;28;20039;-78
2022/11/28 00:24:35;;;;;;;29.98;17.10;;;;;;;3.55;100.00;99537.56;4923659;29;20399;-77
2022/11/28 00:27:20;;;;;;;31.38;16.92;;;;;;;3.68;100.00;99533.75;4935385;29;20054;-77
2022/11/28 00:30:06;;;;;;;30.10;16.00;;;;;;;3.59;100.00;99533.97;4921512;29;20040;-78
2022/11/28 00:32:50;;;;;;;36.15;17.98;;;;;;;3.37;100.00;99529.38;4938320;29;20039;-76
2022/11/28 00:35:35;;;;;;;26.50;15.25;;;;;;;3.82;100.00;99530.75;4938426;29;20043;-79
2022/11/28 00:38:20;;;;;;;27.60;14.70;;;;;;;3.94;100.00;99526.97;4937176;29;20049;-79
2022/11/28 00:41:09;;;;;;;29.25;16.20;;;;;;;3.91;100.00;99526.19;4912024;29;20047;-78
2022/11/28 00:43:54;;;;;;;25.67;15.00;;;;;;;3.97;100.00;99522.56;4936657;29;20486;-78
2022/11/28 00:46:38;;;;;;;27.98;15.27;;;;;;;3.99;100.00;99518.19;4935551;29;20047;-76
2022/11/28 00:49:23;;;;;;;25.35;14.82;;;;;;;3.66;100.00;99512.19;4936050;28;20456;-78
2022/11/28 00:52:08;;;;;;;30.30;15.98;;;;;;;3.64;100.00;99515.72;4937302;29;20044;-81
2022/11/28 00:54:53;;;;;;;26.95;14.82;;;;;;;3.56;100.00;99511.59;4941504;29;20071;-83
2022/11/28 00:57:38;;;;;;;26.73;14.80;;;;;;;3.66;100.00;99506.16;4938208;29;20043;-78
2022/11/28 01:00:23;;;;;;;26.15;14.50;;;;;;;3.51;100.00;99507.44;4908789;29;20036;-78
2022/11/28 01:03:07;;;;;;;25.45;14.75;;;;;;;3.68;100.00;99509.56;4935988;29;20050;-76
2022/11/28 01:05:52;;;;;;;25.30;13.80;;;;;;;3.74;100.00;99506.78;4944090;29;20043;-79
2022/11/28 01:08:37;;;;;;;24.17;13.05;;;;;;;3.80;100.00;99500.59;4921719;29;20051;-77
2022/11/28 01:11:22;;;;;;;29.02;15.02;;;;;;;3.60;100.00;99499.41;4937661;29;20197;-78
2022/11/28 01:14:08;;;;;;;23.35;13.65;;;;;;;3.59;100.00;99495.09;4928884;29;20052;-77
2022/11/28 01:16:53;;;;;;;27.75;14.95;;;;;;;3.62;100.00;99492.44;4924775;29;20131;-78
2022/11/28 01:19:37;;;;;;;21.88;13.07;;;;;;;3.60;100.00;99485.59;4905799;29;20479;-76
2022/11/28 01:22:22;;;;;;;21.95;12.80;;;;;;;3.73;100.00;99484.38;4921276;29;20138;-78
2022/11/28 01:25:06;;;;;;;27.88;14.18;;;;;;;3.68;100.00;99475.88;4937820;29;20132;-78
2022/11/28 01:27:51;;;;;;;21.40;12.02;;;;;;;3.65;100.00;99463.00;4933844;29;20554;-79
2022/11/28 01:30:36;;;;;;;27.25;14.40;;;;;;;3.49;100.00;99460.00;4918816;29;20118;-81
2022/11/28 01:33:21;;;;;;;26.30;14.93;;;;;;;3.49;100.00;99457.41;4934193;28;20071;-77
2022/11/28 01:36:07;;;;;;;23.58;13.73;;;;;;;3.54;100.00;99455.53;4935692;29;20484;-77
2022/11/28 01:38:52;;;;;;;24.20;13.70;;;;;;;3.60;100.00;99452.75;4925339;29;20043;-77
2022/11/28 01:41:36;;;;;;;25.25;14.63;;;;;;;3.58;100.00;99436.41;4935359;29;20048;-78
2022/11/28 01:44:22;;;;;;;25.02;14.35;;;;;;;3.65;100.00;99434.50;4899578;29;20505;-75
2022/11/28 01:47:06;;;;;;;26.95;15.30;;;;;;;3.22;100.00;99426.19;4899293;29;21448;-77
2022/11/28 01:49:53;;;;;;;23.35;13.88;;;;;;;3.38;100.00;99408.50;4897431;29;20099;-78
2022/11/28 01:52:41;;;;;;;28.40;14.93;;;;;;;3.22;100.00;99408.91;4902000;29;20048;-80
2022/11/28 01:55:30;;;;;;;22.98;13.73;;;;;;;3.19;100.00;99404.69;4897932;29;20040;-77
2022/11/28 01:58:16;;;;;;;27.92;15.05;;;;;;;3.42;100.00;99402.31;4870956;29;20139;-78
2022/11/28 02:01:03;;;;;;;23.80;13.77;;;;;;;3.48;100.00;99396.13;4908485;29;20122;-79
2022/11/28 02:03:49;;;;;;;27.55;14.57;;;;;;;3.49;100.00;99397.81;4895689;29;20079;-77
2022/11/28 02:06:35;;;;;;;27.25;14.60;;;;;;;3.39;100.00;99392.03;4899284;29;20114;-79
2022/11/28 02:09:19;;;;;;;24.73;14.02;;;;;;;3.25;100.00;99388.09;4900182;29;20149;-79
2022/11/28 02:12:07;;;;;;;28.25;15.02;;;;;;;3.37;100.00;99379.16;4912942;29;20044;-78
2022/11/28 02:15:07;;;;;;;27.30;14.93;;;;;;;3.37;100.00;99384.31;4912712;29;20484;-78
2022/11/28 02:18:03;;;;;;;26.90;14.48;;;;;;;3.36;100.00;99374.00;4933554;23;20495;-78
2022/11/28 02:21:09;;;;;;;29.63;15.77;;;;;;;3.22;100.00;99389.91;4977413;28;20062;-77
2022/11/28 02:24:12;;;;;;;27.50;15.18;;;;;;;3.11;100.00;99361.75;4953936;28;20039;-78
2022/11/28 02:27:04;;;;;;;24.38;13.82;;;;;;;3.16;100.00;99349.53;4967376;28;20127;-79
2022/11/28 02:30:18;;;;;;;26.88;14.02;;;;;;;3.22;100.00;99338.97;4964397;28;20039;-78
2022/11/28 02:33:16;;;;;;;26.20;14.57;;;;;;;3.37;100.00;99334.25;4971760;28;20467;-78
2022/11/28 02:36:15;;;;;;;32.20;15.48;;;;;;;3.34;100.00;99332.59;4936026;28;20123;-77
2022/11/28 02:39:09;;;;;;;28.20;15.52;;;;;;;3.05;100.00;99324.78;4976876;28;20038;-79
2022/11/28 02:42:03;;;;;;;26.90;14.30;;;;;;;3.29;100.00;99330.16;4981623;28;20039;-77
2022/11/28 02:45:00;;;;;;;27.67;14.88;;;;;;;3.45;100.00;99312.41;4953685;28;20043;-80
2022/11/28 02:48:02;;;;;;;25.70;14.32;;;;;;;3.27;100.00;99331.94;4963767;28;20134;-77
2022/11/28 02:51:12;;;;;;;28.08;14.90;;;;;;;3.03;100.00;99334.34;4920139;28;20094;-79
2022/11/28 02:53:58;;;;;;;28.65;14.15;;;;;;;3.13;100.00;99318.53;4924340;28;20039;-77
2022/11/28 02:56:50;;;;;;;27.15;14.02;;;;;;;3.15;100.00;99329.72;4936588;28;20043;-78
2022/11/28 02:59:36;;;;;;;26.02;14.35;;;;;;;3.18;100.00;99327.03;4925659;28;20047;-77
2022/11/28 03:02:29;;;;;;;27.42;14.70;;;;;;;3.02;100.00;99332.63;4938076;28;20515;-80
2022/11/28 03:05:30;;;;;;;27.00;14.05;;;;;;;2.93;100.00;99333.75;4936755;28;20043;-78
2022/11/28 03:08:26;;;;;;;29.05;15.93;;;;;;;3.03;100.00;99339.53;4924070;28;20073;-78
2022/11/28 03:11:26;;;;;;;29.10;15.85;;;;;;;2.66;100.00;99341.38;4959018;28;20092;-77
2022/11/28 03:14:29;;;;;;;29.27;15.48;;;;;;;2.88;100.00;99337.34;4953662;28;20153;-78
2022/11/28 03:17:26;;;;;;;29.13;14.93;;;;;;;2.83;100.00;99327.97;4935263;28;20035;-80
2022/11/28 03:20:26;;;;;;;27.90;14.80;;;;;;;2.91;100.00;99321.72;4952374;28;20043;-78
2022/11/28 03:23:41;;;;;;;33.33;16.25;;;;;;;2.64;100.00;99321.59;4923107;28;20074;-79
2022/11/28 03:26:35;;;;;;;27.85;14.10;;;;;;;2.69;100.00;99335.28;4953117;28;20137;-77
2022/11/28 03:29:29;;;;;;;31.40;16.63;;;;;;;2.60;100.00;99344.13;4933549;28;20047;-77
2022/11/28 03:32:28;;;;;;;32.35;15.70;;;;;;;2.69;100.00;99338.69;4949880;28;20559;-78
2022/11/28 03:35:18;;;;;;;29.83;15.32;;;;;;;2.66;100.00;99333.59;4932801;28;20047;-78
2022/11/28 03:38:20;;;;;;;31.23;15.13;;;;;;;2.53;100.00;99332.25;4952603;28;20066;-81
2022/11/28 03:41:13;;;;;;;27.33;15.07;;;;;;;2.57;100.00;99342.47;4936856;29;20031;-79
2022/11/28 03:43:59;;;;;;;30.60;15.38;;;;;;;2.62;100.00;99347.53;4939643;28;20051;-78
2022/11/28 03:46:47;;;;;;;28.58;14.23;;;;;;;2.82;100.00;99323.69;4950089;28;20167;-79
2022/11/28 03:49:38;;;;;;;34.22;16.63;;;;;;;2.57;100.00;99334.72;4947859;28;20051;-77
2022/11/28 03:52:31;;;;;;;28.25;14.95;;;;;;;2.70;100.00;99311.09;4943044;28;20440;-76
2022/11/28 03:55:29;;;;;;;27.58;14.50;;;;;;;2.62;100.00;99306.13;4960507;28;20046;-78
2022/11/28 03:58:31;;;;;;;32.10;15.75;;;;;;;2.42;100.00;99309.22;4956900;28;20049;-78
2022/11/28 04:02:00;;;;;;;28.52;15.70;;;;;;;2.27;100.00;99307.91;4946538;28;20543;-78
2022/11/28 04:05:05;;;;;;;30.55;14.65;;;;;;;2.55;100.00;99314.94;4895794;29;20412;-76
2022/11/28 04:08:00;;;;;;;30.58;15.52;;;;;;;2.37;100.00;99306.78;4879472;29;20148;-76
2022/11/28 04:11:02;;;;;;;28.95;15.07;;;;;;;2.38;100.00;99303.31;4881565;29;20504;-79
2022/11/28 04:14:22;;;;;;;29.17;14.93;;;;;;;2.73;100.00;99292.88;4894730;29;20056;-78
2022/11/28 04:17:18;;;;;;;30.33;14.88;;;;;;;2.60;100.00;99302.72;4835493;29;20113;-80
2022/11/28 04:20:07;;;;;;;26.40;14.50;;;;;;;2.56;100.00;99303.72;4823922;29;20465;-77
2022/11/28 04:23:00;;;;;;;32.95;15.82;;;;;;;2.53;100.00;99304.63;4828947;29;20144;-78
2022/11/28 04:25:58;;;;;;;27.75;14.07;;;;;;;2.50;100.00;99298.72;4840712;29;20145;-78
2022/11/28 04:28:48;;;;;;;30.27;15.43;;;;;;;2.75;100.00;99303.19;4840772;29;20063;-80
2022/11/28 04:31:35;;;;;;;30.35;14.52;;;;;;;2.57;100.00;99314.03;4827416;29;20060;-78
2022/11/28 04:34:24;;;;;;;29.42;14.30;;;;;;;2.57;100.00;99307.97;4816443;29;20072;-78
2022/11/28 04:37:13;;;;;;;28.98;14.65;;;;;;;2.64;100.00;99301.78;4841281;29;20069;-78
2022/11/28 04:39:59;;;;;;;29.27;14.85;;;;;;;2.55;100.00;99309.75;4843576;29;20053;-78
2022/11/28 04:42:51;;;;;;;28.10;13.95;;;;;;;2.73;100.00;99302.38;4830588;29;20379;-79
2022/11/28 04:45:43;;;;;;;29.83;14.85;;;;;;;2.53;100.00;99302.03;4831584;29;20079;-80
2022/11/28 04:48:27;;;;;;;26.67;14.85;;;;;;;2.45;100.00;99310.00;4830670;29;20280;-78
2022/11/28 04:51:18;;;;;;;29.40;15.32;;;;;;;2.67;100.00;99304.28;4843367;29;20116;-79
2022/11/28 04:54:21;;;;;;;29.15;15.73;;;;;;;2.73;100.00;99279.09;4937226;28;20134;-78
2022/11/28 04:57:18;;;;;;;28.15;14.57;;;;;;;2.68;100.00;99268.88;4923172;28;20043;-78
2022/11/28 05:00:06;;;;;;;29.13;14.35;;;;;;;2.69;100.00;99273.19;4939040;28;20551;-82
2022/11/28 05:02:53;;;;;;;29.40;14.10;;;;;;;2.75;100.00;99267.81;4934534;28;20225;-82
2022/11/28 05:05:48;;;;;;;27.92;14.95;;;;;;;2.71;100.00;99271.38;4948146;28;20154;-81
2022/11/28 05:08:33;;;;;;;27.38;14.88;;;;;;;2.74;100.00;99279.06;4921912;28;20439;-80
2022/11/28 05:11:18;;;;;;;26.00;13.80;;;;;;;2.77;100.00;99275.53;4926058;28;20047;-79
2022/11/28 05:14:04;;;;;;;28.35;14.85;;;;;;;2.68;100.00;99274.91;4941668;28;20129;-78
2022/11/28 05:16:49;;;;;;;29.23;15.25;;;;;;;2.63;100.00;99281.13;4970400;28;20073;-79
2022/11/28 05:19:34;;;;;;;29.85;15.52;;;;;;;2.68;100.00;99279.22;4932508;28;20031;-79
2022/11/28 05:22:18;;;;;;;26.30;14.32;;;;;;;2.62;100.00;99271.63;4926429;28;20043;-79
2022/11/28 05:25:04;;;;;;;26.90;13.82;;;;;;;2.68;100.00;99271.47;4957507;28;20114;-79
2022/11/28 05:27:50;;;;;;;26.00;13.20;;;;;;;2.63;100.00;99266.41;4949558;28;20523;-80
2022/11/28 05:30:37;;;;;;;29.33;14.93;;;;;;;2.46;100.00;99272.91;4942729;28;20110;-78
2022/11/28 05:33:22;;;;;;;29.92;15.52;;;;;;;2.49;100.00;99269.41;4936156;28;20122;-79
2022/11/28 05:36:10;;;;;;;28.15;14.25;;;;;;;2.52;100.00;99261.56;4957826;28;20080;-80
2022/11/28 05:38:55;;;;;;;29.05;14.90;;;;;;;2.48;100.00;99254.75;4946260;28;20068;-77
2022/11/28 05:41:39;;;;;;;30.70;15.10;;;;;;;2.44;100.00;99269.53;4936026;28;20049;-79
2022/11/28 05:44:24;;;;;;;32.47;15.02;;;;;;;2.51;100.00;99259.88;4926816;28;20031;-78
2022/11/28 05:47:09;;;;;;;29.55;14.93;;;;;;;2.70;100.00;99267.09;4941917;28;20141;-78
2022/11/28 05:49:54;;;;;;;27.30;14.00;;;;;;;2.69;100.00;99253.31;4955558;28;20054;-79
2022/11/28 05:52:39;;;;;;;32.88;15.02;;;;;;;2.52;100.00;99263.28;4948045;28;20038;-79
2022/11/28 05:55:23;;;;;;;29.77;14.85;;;;;;;2.51;100.00;99248.66;4935492;28;20039;-78
2022/11/28 05:58:08;;;;;;;32.38;13.48;;;;;;;3.00;100.00;99246.41;4932447;28;20039;-78
2022/11/28 06:00:53;;;;;;;28.80;14.32;;;;;;;2.52;100.00;99250.34;4951004;28;20046;-78
2022/11/28 06:03:39;;;;;;;27.80;14.80;;;;;;;2.53;100.00;99250.28;4950887;28;20497;-78
2022/11/28 06:06:26;;;;;;;27.45;13.65;;;;;;;2.70;100.00;99239.50;4935635;28;20061;-80
2022/11/28 06:09:12;;;;;;;29.55;14.88;;;;;;;2.95;100.00;99243.94;4925185;28;20050;-78
2022/11/28 06:12:01;;;;;;;24.98;13.20;;;;;;;2.96;100.00;99237.03;4941111;28;20047;-79
2022/11/28 06:14:46;;;;;;;26.98;13.32;;;;;;;2.77;100.00;99242.75;4940055;28;20043;-78
2022/11/28 06:17:31;;;;;;;28.85;13.80;;;;;;;2.81;100.00;99234.00;4953483;28;20400;-80
2022/11/28 06:20:16;;;;;;;29.50;14.75;;;;;;;2.96;100.00;99237.03;4940847;28;20423;-77
2022/11/28 06:23:00;;;;;;;29.10;14.55;;;;;;;2.66;100.00;99239.63;4940780;29;20046;-79
2022/11/28 06:25:45;;;;;;;25.45;13.52;;;;;;;2.74;100.00;99231.63;4938183;28;20070;-77
2022/11/28 06:28:30;;;;;;;30.75;14.75;;;;;;;2.65;100.00;99245.66;4910710;28;20122;-79
2022/11/28 06:31:18;;;;;;;30.20;14.13;;;;;;;2.70;100.00;99248.97;4925781;28;20122;-77
2022/11/28 06:34:02;;;;;;;28.38;13.73;;;;;;;2.59;100.00;99244.94;4937898;28;20138;-78
2022/11/28 06:36:47;;;;;;;27.08;14.13;;;;;;;2.55;100.00;99240.75;4951970;28;20035;-79
2022/11/28 06:39:33;;;;;;;29.38;14.55;;;;;;;2.63;100.00;99244.88;4938968;28;20450;-78
2022/11/28 06:42:18;;;;;;;34.50;14.70;;;;;;;2.70;100.00;99243.81;4963940;28;20081;-78
2022/11/28 06:45:05;;;;;;;29.20;13.90;;;;;;;2.71;100.00;99248.09;4944331;28;20039;-78
2022/11/28 06:47:49;;;;;;;28.73;14.00;;;;;;;2.68;100.00;99251.63;4936629;28;20039;-79
2022/11/28 06:50:34;;;;;;;25.67;13.57;;;;;;;2.76;100.00;99258.34;4949993;28;20058;-77
2022/11/28 06:53:19;;;;;;;25.90;13.07;;;;;;;2.59;100.00;99244.13;4938536;28;20390;-76
2022/11/28 06:56:08;;;;;;;28.45;13.27;;;;;;;2.65;100.00;99246.53;4953567;28;20126;-79
2022/11/28 06:58:55;;;;;;;27.83;12.95;;;;;;;2.74;100.00;99244.56;4923218;28;20043;-78
2022/11/28 07:01:39;;;;;;;28.67;12.88;;;;;;;2.62;100.00;99241.44;4930875;28;20039;-77
2022/11/28 07:04:24;;;;;;;27.30;12.70;;;;;;;2.67;100.00;99249.06;4939466;28;20038;-81
2022/11/28 07:07:09;;;;;;;24.83;12.50;;;;;;;2.67;100.00;99236.13;4957493;28;20126;-77
2022/11/28 07:09:55;;;;;;;26.60;13.27;;;;;;;2.75;100.00;99241.09;4940819;28;20043;-78
2022/11/28 07:12:39;;;;;;;24.30;12.52;;;;;;;2.66;100.00;99249.97;4954001;28;20035;-77
2022/11/28 07:15:26;;;;;;;23.45;12.55;;;;;;;2.63;100.00;99242.31;4937853;28;20122;-77
2022/11/28 07:18:11;;;;;;;21.83;11.77;;;;;;;2.70;100.00;99238.63;4937581;28;20106;-80
2022/11/28 07:20:56;;;;;;;23.52;11.73;;;;;;;2.73;100.00;99250.63;4954456;28;20043;-77
2022/11/28 07:23:42;;;;;;;25.05;13.07;;;;;;;2.82;100.00;99233.09;4908883;28;20031;-77
2022/11/28 07:26:27;;;;;;;23.05;11.73;;;;;;;2.76;100.00;99240.22;4954316;28;20141;-80
2022/11/28 07:29:16;;;;;;;20.80;11.30;;;;;;;2.83;100.00;99224.47;4956190;28;20946;-76
2022/11/28 07:32:04;;;;;;;23.02;12.00;;;;;;;2.91;100.00;99238.91;4949765;28;20071;-77
2022/11/28 07:34:48;;;;;;;20.48;11.13;;;;;;;2.92;100.00;99238.84;4950807;28;20050;-76
2022/11/28 07:37:33;;;;;;;21.90;11.40;;;;;;;2.94;100.00;99221.53;4941107;28;20121;-77
2022/11/28 07:40:21;;;;;;;25.13;11.32;;;;;;;3.12;100.00;99224.47;4930727;28;20067;-79
2022/11/28 07:43:09;;;;;;;19.73;10.23;;;;;;;3.04;100.00;99226.44;4957325;28;20050;-81
2022/11/28 07:45:53;;;;;;;19.95;10.82;;;;;;;3.06;100.00;99216.88;4951794;28;20115;-81
2022/11/28 07:48:38;;;;;;;21.40;11.05;;;;;;;3.08;100.00;99215.13;4939025;28;20077;-77
2022/11/28 07:51:26;;;;;;;20.98;10.75;;;;;;;3.25;100.00;99244.84;4931329;28;20114;-77
2022/11/28 07:54:11;;;;;;;17.63;9.02;;;;;;;3.32;100.00;99225.59;4949861;28;20763;-78
2022/11/28 07:56:56;;;;;;;20.67;10.43;;;;;;;3.18;100.00;99208.72;4922381;28;20090;-78
2022/11/28 07:59:41;;;;;;;20.13;10.75;;;;;;;3.17;100.00;99222.59;4937080;28;20487;-78
2022/11/28 08:02:31;;;;;;;18.08;10.23;;;;;;;3.45;100.00;99210.50;4952747;28;20043;-79
2022/11/28 08:05:15;;;;;;;16.90;9.18;;;;;;;3.37;100.00;99204.72;4945273;28;20043;-80
2022/11/28 08:08:00;;;;;;;24.23;11.23;;;;;;;3.41;100.00;99229.66;4943112;28;20043;-79
2022/11/28 08:10:45;;;;;;;17.50;9.77;;;;;;;3.42;100.00;99237.38;4935407;28;20502;-78
2022/11/28 08:13:30;;;;;;;16.75;9.20;;;;;;;3.49;100.00;99204.34;4948564;28;20049;-77
2022/11/28 08:16:17;;;;;;;18.50;10.10;;;;;;;3.45;100.00;99229.50;4948851;28;20087;-80
2022/11/28 08:19:02;;;;;;;18.23;8.80;;;;;;;3.58;100.00;99229.09;4910088;28;20083;-79
2022/11/28 08:21:48;;;;;;;16.52;9.68;;;;;;;3.46;100.00;99230.34;4921495;28;20051;-78
2022/11/28 08:24:33;;;;;;;16.88;9.07;;;;;;;3.48;100.00;99225.97;4934791;28;20049;-77
2022/11/28 08:27:17;;;;;;;17.45;9.98;;;;;;;3.48;100.00;99230.31;4939457;28;20134;-77
2022/11/28 08:30:03;;;;;;;19.15;10.02;;;;;;;3.51;100.00;99207.72;4936991;28;20051;-78
2022/11/28 08:32:48;;;;;;;18.33;10.52;;;;;;;3.62;99.11;99211.72;4923475;28;20759;-76
2022/11/28 08:35:32;;;;;;;17.58;10.05;;;;;;;3.60;98.58;99206.59;4921927;28;20557;-78
2022/11/28 08:38:17;;;;;;;18.67;10.25;;;;;;;3.62;98.26;99203.94;4923927;28;20051;-79
2022/11/28 08:41:03;;;;;;;17.25;8.73;;;;;;;3.84;97.34;99208.41;4936764;28;20114;-77
2022/11/28 08:43:49;;;;;;;16.80;10.10;;;;;;;3.98;96.83;99193.25;4924024;28;20039;-78
2022/11/28 08:46:35;;;;;;;18.73;9.25;;;;;;;3.97;96.01;99207.09;4920937;28;20089;-76
2022/11/28 08:49:20;;;;;;;16.58;8.45;;;;;;;3.92;96.37;99219.34;4939913;28;20089;-75
2022/11/28 08:52:05;;;;;;;17.67;9.13;;;;;;;4.00;96.34;99203.56;4927905;28;20632;-77
2022/11/28 08:54:50;;;;;;;16.50;8.73;;;;;;;3.87;95.85;99229.06;4939764;28;20087;-79
2022/11/28 08:57:34;;;;;;;17.88;9.13;;;;;;;3.88;96.42;99210.88;4926074;28;20471;-78
2022/11/28 09:00:19;;;;;;;16.60;8.52;;;;;;;3.99;95.51;99207.91;4943249;28;20063;-77
2022/11/28 09:03:04;;;;;;;17.40;10.23;;;;;;;3.80;97.08;99192.13;4959502;28;20035;-78
2022/11/28 09:05:48;;;;;;;17.10;9.43;;;;;;;4.06;95.83;99204.19;4942636;28;20133;-79
2022/11/28 09:08:33;;;;;;;18.15;10.05;;;;;;;3.95;95.99;99224.44;4942490;28;20490;-78
2022/11/28 09:11:19;;;;;;;16.58;9.65;;;;;;;3.97;94.02;99201.06;4935474;29;20071;-76
2022/11/28 09:14:03;;;;;;;17.35;9.13;;;;;;;4.07;95.18;99200.69;4927011;28;20043;-78
2022/11/28 09:16:49;;;;;;;16.17;9.20;;;;;;;4.24;94.38;99212.25;4925977;28;20047;-78
2022/11/28 09:19:33;;;;;;;19.50;10.27;;;;;;;4.17;94.51;99218.53;4947229;28;20105;-79
2022/11/28 09:22:18;;;;;;;24.23;9.65;;;;;;;4.17;95.39;99188.25;4932096;28;20043;-78
2022/11/28 09:25:03;;;;;;;17.90;9.15;;;;;;;4.06;95.91;99198.16;4937216;28;20039;-77
2022/11/28 09:27:47;;;;;;;16.55;9.50;;;;;;;4.16;95.26;99209.88;4924106;28;20570;-78
2022/11/28 09:30:33;;;;;;;21.15;9.75;;;;;;;4.28;95.20;99184.41;4952659;28;20058;-78
2022/11/28 09:33:18;;;;;;;18.30;10.18;;;;;;;4.41;93.52;99197.78;4926227;28;20656;-80
2022/11/28 09:36:14;;;;;;;16.27;9.10;;;;;;;4.45;93.66;99186.41;4911781;28;20483;-80
2022/11/28 09:39:00;;;;;;;18.70;9.35;;;;;;;4.71;93.58;99187.19;4927066;28;20464;-77
2022/11/28 09:42:11;;;;;;;17.10;9.25;;;;;;;4.91;90.58;99176.03;4959582;28;20471;-79
2022/11/28 09:45:23;;;;;;;19.15;9.00;;;;;;;4.70;91.17;99177.69;4941621;28;20035;-78
2022/11/28 09:48:24;;;;;;;14.35;7.85;;;;;;;5.18;89.60;99169.84;4926367;28;20043;-79
2022/11/28 09:51:27;;;;;;;15.85;8.38;;;;;;;5.03;88.17;99173.88;4919197;28;20039;-78
2022/11/28 09:54:19;;;;;;;14.85;8.25;;;;;;;5.14;88.19;99160.47;4939402;28;20039;-82
2022/11/28 09:57:12;;;;;;;14.25;7.85;;;;;;;5.35;86.52;99150.97;4966234;28;20535;-77
2022/11/28 09:59:56;;;;;;;16.38;8.82;;;;;;;5.24;86.48;99146.19;4938425;28;20141;-77
2022/11/28 10:02:47;;;;;;;13.40;6.90;;;;;;;5.60;85.23;99141.31;4936320;28;20039;-77
2022/11/28 10:05:40;;;;;;;15.35;7.40;;;;;;;6.19;84.02;99131.00;4951860;28;20114;-78
2022/11/28 10:08:42;;;;;;;16.27;8.18;;;;;;;6.02;82.03;99134.34;4941020;28;20069;-79
2022/11/28 10:11:43;;;;;;;15.55;8.57;;;;;;;5.20;84.09;99144.66;4951482;28;20043;-78
2022/11/28 10:14:46;;;;;;;15.18;7.10;;;;;;;5.02;86.55;99144.47;4932453;28;20042;-78
2022/11/28 10:17:57;;;;;;;14.15;7.50;;;;;;;4.89;86.73;99158.84;4939737;28;20054;-79
2022/11/28 10:20:50;;;;;;;14.45;7.47;;;;;;;4.58;89.16;99142.69;4935058;28;20137;-78
2022/11/28 10:23:42;;;;;;;13.43;7.07;;;;;;;4.74;89.50;99148.16;4941231;28;20031;-79
2022/11/28 10:26:40;;;;;;;18.13;8.45;;;;;;;4.47;90.02;99142.25;4941701;28;20106;-78
2022/11/28 10:29:46;;;;;;;13.93;8.15;;;;;;;4.62;89.80;99141.66;4957329;28;20051;-82
2022/11/28 10:32:39;;;;;;;12.80;7.43;;;;;;;4.47;89.99;99137.06;4937948;28;20126;-79
2022/11/28 10:35:43;;;;;;;16.23;7.88;;;;;;;4.39;91.30;99126.97;4940604;28;20048;-78
2022/11/28 10:38:32;;;;;;;13.68;7.53;;;;;;;4.36;90.78;99129.69;4955695;28;20166;-78
2022/11/28 10:41:35;;;;;;;14.77;7.28;;;;;;;4.37;91.61;99123.59;4942829;28;20051;-78
2022/11/28 10:44:30;;;;;;;15.90;8.60;;;;;;;4.27;91.39;99105.78;4962366;28;20039;-78
2022/11/28 10:47:56;;;;;;;17.38;7.80;;;;;;;4.24;92.11;99116.28;4950254;28;20067;-78
2022/11/28 10:50:51;;;;;;;14.77;7.88;;;;;;;4.35;92.42;99108.06;4942617;28;20043;-79
2022/11/28 10:54:01;;;;;;;15.50;8.35;;;;;;;4.15;91.87;99111.41;4937916;28;20078;-77
2022/11/28 10:57:04;;;;;;;14.98;7.93;;;;;;;4.17;91.99;99112.19;4941284;28;20126;-78
2022/11/28 11:00:03;;;;;;;15.02;8.00;;;;;;;4.14;92.88;99102.78;4937001;28;20043;-78
2022/11/28 11:02:54;;;;;;;15.23;8.63;;;;;;;4.09;93.05;99101.25;4950246;28;20043;-78
2022/11/28 11:05:38;;;;;;;15.80;8.75;;;;;;;3.86;94.02;99083.03;4947443;28;20094;-78
2022/11/28 11:08:32;;;;;;;17.33;9.48;;;;;;;3.79;94.53;99130.78;4937514;28;20037;-80
2022/11/28 11:11:32;;;;;;;16.10;9.32;;;;;;;3.87;94.45;99100.28;4925104;28;20055;-77
2022/11/28 11:14:33;;;;;;;16.83;8.10;;;;;;;4.07;94.03;99098.72;4962886;28;20498;-78
2022/11/28 11:17:36;;;;;;;16.60;8.00;;;;;;;3.78;94.81;99105.78;4939651;28;20055;-80
2022/11/28 11:20:21;;;;;;;14.85;8.00;;;;;;;3.97;94.07;99100.78;4926219;28;20051;-77
2022/11/28 11:23:14;;;;;;;15.13;8.15;;;;;;;3.94;93.66;99095.72;4952177;28;20051;-78
2022/11/28 11:26:00;;;;;;;15.93;9.07;;;;;;;3.81;94.01;99093.56;4943075;28;20054;-77
2022/11/28 11:28:49;;;;;;;16.42;8.82;;;;;;;3.76;94.64;99087.69;4922685;28;20148;-78
2022/11/28 11:31:42;;;;;;;15.27;8.35;;;;;;;3.78;94.69;99088.50;4926020;28;20066;-79
2022/11/28 11:34:30;;;;;;;14.70;8.35;;;;;;;3.81;94.17;99090.97;4911863;28;20054;-79
2022/11/28 11:37:30;;;;;;;14.50;8.00;;;;;;;3.88;94.32;99086.44;4936609;28;20066;-77
2022/11/28 11:40:26;;;;;;;20.23;8.82;;;;;;;3.86;93.95;99105.50;4939052;28;20428;-77
2022/11/28 11:43:32;;;;;;;14.13;8.55;;;;;;;3.68;94.73;99100.94;4949576;28;20058;-77
2022/11/28 11:46:17;;;;;;;16.13;8.73;;;;;;;3.62;95.52;99087.34;4940393;28;20090;-76
2022/11/28 11:49:03;;;;;;;15.52;7.88;;;;;;;3.76;95.09;99095.47;4930525;28;20126;-77
2022/11/28 11:51:55;;;;;;;16.05;8.93;;;;;;;3.76;95.08;99079.06;4935384;28;20081;-79
2022/11/28 11:54:46;;;;;;;16.92;8.80;;;;;;;3.75;95.47;99082.56;4936379;28;20043;-77
2022/11/28 11:57:45;;;;;;;15.35;8.13;;;;;;;3.69;95.76;99094.84;4937659;28;20130;-79
2022/11/28 12:00:40;;;;;;;13.63;8.05;;;;;;;3.65;96.01;99082.91;4936819;28;20067;-76
2022/11/28 12:03:32;;;;;;;16.63;8.57;;;;;;;3.76;95.05;99082.50;4954721;28;20570;-79
2022/11/28 12:06:28;;;;;;;15.88;8.68;;;;;;;3.65;95.90;99071.69;4943187;28;20058;-77
2022/11/28 12:09:26;;;;;;;15.93;8.32;;;;;;;3.61;95.82;99073.53;4948416;28;20530;-79
2022/11/28 12:12:24;;;;;;;15.95;8.45;;;;;;;3.71;95.95;99074.06;4942098;28;20438;-78
2022/11/28 12:15:16;;;;;;;16.00;8.63;;;;;;;3.62;95.25;99097.69;4957603;28;20048;-78
2022/11/28 12:18:23;;;;;;;17.55;7.88;;;;;;;3.62;95.95;99067.47;4937223;28;20081;-78
2022/11/28 12:21:08;;;;;;;16.42;8.15;;;;;;;3.44;96.52;99074.94;4958506;28;20054;-79
2022/11/28 12:24:14;;;;;;;14.32;7.68;;;;;;;3.70;95.36;99080.16;4957546;28;20081;-79
2022/11/28 12:27:10;;;;;;;15.43;9.07;;;;;;;3.62;95.81;99067.47;4969460;28;20044;-79
2022/11/28 12:30:10;;;;;;;13.73;7.82;;;;;;;3.58;96.71;99058.09;4954009;28;20035;-77
2022/11/28 12:33:07;;;;;;;13.30;7.60;;;;;;;3.60;96.47;99079.63;4953098;28;20046;-78
2022/11/28 12:36:17;;;;;;;14.75;8.43;;;;;;;3.53;96.85;99073.81;4932289;28;20122;-78
2022/11/28 12:39:53;;;;;;;15.80;8.20;;;;;;;3.53;96.78;99067.75;4922670;28;20050;-77
2022/11/28 12:43:04;;;;;;;17.50;8.88;;;;;;;3.25;97.78;99084.25;4907781;29;20530;-79
2022/11/28 12:45:54;;;;;;;14.93;8.20;;;;;;;3.45;97.44;99086.16;4907367;29;20051;-78
2022/11/28 12:49:06;;;;;;;16.95;9.35;;;;;;;3.38;98.38;99092.47;4911397;29;20048;-79
2022/11/28 12:52:30;;;;;;;15.10;8.57;;;;;;;3.33;98.50;99080.50;4893403;29;20062;-77
2022/11/28 12:55:30;;;;;;;17.38;8.90;;;;;;;3.33;98.31;99066.69;4920453;29;20067;-78
2022/11/28 12:58:25;;;;;;;14.80;7.28;;;;;;;3.35;98.13;99077.00;4895575;29;20047;-77
2022/11/28 13:01:37;;;;;;;20.25;9.45;;;;;;;3.23;98.58;99073.97;4905263;29;20048;-79
2022/11/28 13:04:47;;;;;;;18.75;8.57;;;;;;;3.27;97.93;99067.75;4906653;29;20052;-78
2022/11/28 13:07:53;;;;;;;19.08;8.25;;;;;;;3.21;97.96;99070.56;4919279;29;20986;-78
2022/11/28 13:10:44;;;;;;;16.13;8.85;;;;;;;3.22;98.65;99084.34;4905801;29;20056;-78
2022/11/28 13:13:35;;;;;;;16.50;8.82;;;;;;;3.05;99.63;99070.22;4892093;29;20047;-78